Time;durP1;ratioP1;P1;durP2;ratioP2;P2;SDS_P1;SDS_P2;PMS_P1;PMS_P2;Temp;Humidity;BMP_temperature;BMP_pressure;BME280_temperature;BME280_humidity;BME280_pressure;Samples;Min_cycle;Max_cycle;Signal;HPM_P1;HPM_P2
2022/07/02 00:02:12;;;;;;;2.88;2.55;;;12.90;99.90;;;;;;5067545;28;20040;-79
2022/07/02 00:04:45;;;;;;;4.95;3.10;;;12.80;99.90;;;;;;5071029;28;20490;-79
2022/07/02 00:07:11;;;;;;;5.72;2.60;;;12.80;99.90;;;;;;5069366;28;20040;-80
2022/07/02 00:09:37;;;;;;;4.78;2.75;;;12.80;99.90;;;;;;5053341;28;20047;-80
2022/07/02 00:12:03;;;;;;;5.45;2.78;;;12.70;99.90;;;;;;5071229;28;20106;-79
2022/07/02 00:14:29;;;;;;;2.97;2.60;;;12.80;99.90;;;;;;5054164;28;20037;-79
2022/07/02 00:16:55;;;;;;;5.07;3.10;;;12.80;99.90;;;;;;5073783;28;20107;-80
2022/07/02 00:19:25;;;;;;;4.20;3.20;;;12.80;99.90;;;;;;5054171;28;20082;-80
2022/07/02 00:21:51;;;;;;;3.47;3.13;;;12.80;99.90;;;;;;5072587;28;20036;-80
2022/07/02 00:24:16;;;;;;;3.83;3.22;;;12.80;99.90;;;;;;5073423;28;20125;-79
2022/07/02 00:26:52;;;;;;;4.00;3.00;;;12.70;99.90;;;;;;5073583;28;20363;-80
2022/07/02 00:29:43;;;;;;;5.25;3.00;;;12.70;99.90;;;;;;5071938;28;20083;-80
2022/07/02 00:32:08;;;;;;;3.63;2.80;;;12.60;99.90;;;;;;5072519;28;20066;-80
2022/07/02 00:34:37;;;;;;;3.28;2.97;;;12.70;99.90;;;;;;5073374;28;20045;-80
2022/07/02 00:37:03;;;;;;;3.95;3.10;;;12.70;99.90;;;;;;5071094;28;20072;-80
2022/07/02 00:39:29;;;;;;;3.55;2.92;;;12.60;99.90;;;;;;5069571;28;20033;-80
2022/07/02 00:41:56;;;;;;;4.78;3.17;;;12.60;99.90;;;;;;5070973;28;20135;-80
2022/07/02 00:44:22;;;;;;;3.25;2.92;;;12.60;99.90;;;;;;5071332;28;20029;-80
2022/07/02 00:46:49;;;;;;;3.75;3.10;;;12.60;99.90;;;;;;5063921;28;20796;-80
2022/07/02 00:49:16;;;;;;;4.03;3.15;;;12.50;99.90;;;;;;5062072;28;20070;-79
2022/07/02 00:51:42;;;;;;;4.60;3.25;;;12.50;99.90;;;;;;5066595;28;20355;-80
2022/07/02 00:54:08;;;;;;;5.13;3.28;;;12.50;99.90;;;;;;5069703;28;20078;-80
2022/07/02 00:56:33;;;;;;;4.68;3.45;;;12.50;99.90;;;;;;5066057;28;20044;-80
2022/07/02 00:59:02;;;;;;;5.75;3.35;;;12.50;99.90;;;;;;5054966;28;20029;-80
2022/07/02 01:01:27;;;;;;;6.05;3.60;;;12.50;99.90;;;;;;5067825;28;20063;-80
2022/07/02 01:03:57;;;;;;;4.75;3.47;;;12.50;99.90;;;;;;5053675;28;20380;-80
2022/07/02 01:06:24;;;;;;;3.83;3.40;;;12.50;99.90;;;;;;5073024;28;20089;-80
2022/07/02 01:11:37;;;;;;;5.10;3.75;;;12.50;99.90;;;;;;5069443;28;20052;-80
2022/07/02 01:14:04;;;;;;;4.55;3.78;;;12.40;99.90;;;;;;5070122;28;20360;-80
2022/07/02 01:16:29;;;;;;;5.30;3.40;;;12.40;99.90;;;;;;5071420;28;20423;-80
2022/07/02 01:18:55;;;;;;;3.75;3.30;;;12.40;99.90;;;;;;5071304;28;20047;-80
2022/07/02 01:21:20;;;;;;;3.90;3.60;;;12.40;99.90;;;;;;5070478;28;20513;-79
2022/07/02 01:23:46;;;;;;;6.90;3.97;;;12.40;99.90;;;;;;5070793;28;20523;-79
2022/07/02 01:26:11;;;;;;;6.68;3.95;;;12.40;99.90;;;;;;5058009;28;20124;-80
2022/07/02 01:28:37;;;;;;;4.22;3.83;;;12.30;99.90;;;;;;5068276;28;20037;-80
2022/07/02 01:31:03;;;;;;;3.95;3.60;;;12.30;99.90;;;;;;5084144;28;20135;-79
2022/07/02 01:33:28;;;;;;;4.63;3.53;;;12.30;99.90;;;;;;5071618;28;20048;-80
2022/07/02 01:35:54;;;;;;;4.60;3.42;;;12.30;99.90;;;;;;5071072;28;20037;-80
2022/07/02 01:38:20;;;;;;;4.28;3.85;;;12.20;99.90;;;;;;5070774;28;20563;-80
2022/07/02 01:40:45;;;;;;;4.60;3.95;;;12.20;99.90;;;;;;5077621;28;20116;-80
2022/07/02 01:43:11;;;;;;;4.97;4.03;;;12.20;99.90;;;;;;5073663;28;20115;-80
2022/07/02 01:45:36;;;;;;;3.83;3.30;;;12.20;99.90;;;;;;5069170;28;20087;-80
2022/07/02 01:48:02;;;;;;;5.30;4.30;;;12.10;99.90;;;;;;5068372;28;20056;-80
2022/07/02 01:50:28;;;;;;;5.45;4.05;;;12.20;99.90;;;;;;5069691;28;20047;-80
2022/07/02 01:52:56;;;;;;;4.30;3.90;;;12.10;99.90;;;;;;5069167;28;20047;-80
2022/07/02 01:55:23;;;;;;;4.90;3.90;;;12.10;99.90;;;;;;5069055;28;20480;-80
2022/07/02 01:57:48;;;;;;;8.20;4.57;;;12.20;99.90;;;;;;5071968;28;20047;-79
2022/07/02 02:00:14;;;;;;;4.40;4.00;;;12.10;99.90;;;;;;5087275;28;20394;-79
2022/07/02 02:02:40;;;;;;;4.32;3.92;;;12.10;99.90;;;;;;5070535;28;20051;-80
2022/07/02 02:05:06;;;;;;;6.95;4.32;;;12.10;99.90;;;;;;5068236;28;20040;-80
2022/07/02 02:07:32;;;;;;;4.85;4.10;;;12.10;99.90;;;;;;5050359;28;20175;-79
2022/07/02 02:09:57;;;;;;;5.13;4.15;;;12.10;99.90;;;;;;5070915;28;20119;-80
2022/07/02 02:12:23;;;;;;;5.07;3.95;;;12.10;99.90;;;;;;5065689;28;20032;-80
2022/07/02 02:14:48;;;;;;;5.50;3.90;;;12.10;99.90;;;;;;5068088;28;20560;-79
2022/07/02 02:17:14;;;;;;;5.47;4.10;;;12.10;99.90;;;;;;5071289;28;20035;-80
2022/07/02 02:19:40;;;;;;;5.45;4.13;;;12.10;99.90;;;;;;5068194;28;20082;-79
2022/07/02 02:22:05;;;;;;;5.30;4.10;;;12.00;99.90;;;;;;5069581;28;20024;-79
2022/07/02 02:24:31;;;;;;;4.40;3.63;;;12.00;99.90;;;;;;5067809;28;20486;-79
2022/07/02 02:26:58;;;;;;;4.93;4.30;;;12.00;99.90;;;;;;5068435;28;20040;-79
2022/07/02 02:29:24;;;;;;;5.72;4.13;;;12.00;99.90;;;;;;5084632;28;20045;-79
2022/07/02 02:31:50;;;;;;;4.53;4.07;;;12.00;99.90;;;;;;5068374;28;20045;-79
2022/07/02 02:34:15;;;;;;;5.13;4.30;;;12.00;99.90;;;;;;5067910;28;20045;-80
2022/07/02 02:36:41;;;;;;;4.97;4.07;;;12.00;99.90;;;;;;5066989;28;20041;-79
2022/07/02 02:39:06;;;;;;;5.90;4.28;;;11.90;99.90;;;;;;5068733;28;20182;-80
2022/07/02 02:41:32;;;;;;;5.90;4.35;;;11.90;99.90;;;;;;5067059;28;20047;-79
2022/07/02 02:43:58;;;;;;;5.95;4.40;;;11.90;99.90;;;;;;5067271;28;20040;-79
2022/07/02 02:46:23;;;;;;;5.32;4.22;;;11.90;99.90;;;;;;5070375;28;20179;-79
2022/07/02 02:48:49;;;;;;;6.15;4.40;;;11.90;99.90;;;;;;5068202;28;20056;-79
2022/07/02 02:51:15;;;;;;;7.32;4.55;;;11.90;99.90;;;;;;5069781;28;20051;-79
2022/07/02 02:53:42;;;;;;;5.72;4.22;;;11.80;99.90;;;;;;5066285;28;20040;-79
2022/07/02 02:56:08;;;;;;;5.80;5.20;;;11.80;99.90;;;;;;5065122;28;20851;-79
2022/07/02 02:58:34;;;;;;;5.13;4.30;;;11.80;99.90;;;;;;5067739;28;20043;-79
2022/07/02 03:00:59;;;;;;;5.57;4.90;;;11.70;99.90;;;;;;5068261;28;20470;-79
2022/07/02 03:03:26;;;;;;;5.43;4.88;;;11.60;99.90;;;;;;5077973;28;20087;-79
2022/07/02 03:05:52;;;;;;;5.25;4.57;;;11.60;99.90;;;;;;5068696;28;20049;-79
2022/07/02 03:08:17;;;;;;;7.20;5.20;;;11.50;99.90;;;;;;5069019;28;20056;-79
2022/07/02 03:10:43;;;;;;;5.15;4.45;;;11.50;99.90;;;;;;5068700;28;20040;-79
2022/07/02 03:13:08;;;;;;;5.22;4.72;;;11.50;99.90;;;;;;5068721;28;20036;-79
2022/07/02 03:15:35;;;;;;;6.45;4.97;;;11.50;99.90;;;;;;5069140;28;20493;-79
2022/07/02 03:18:00;;;;;;;5.00;4.50;;;11.60;99.90;;;;;;5065488;28;20345;-79
2022/07/02 03:20:26;;;;;;;6.93;5.00;;;11.60;99.90;;;;;;5070015;28;20039;-79
2022/07/02 03:22:51;;;;;;;6.78;4.95;;;11.60;99.90;;;;;;5071454;28;20572;-79
2022/07/02 03:25:17;;;;;;;5.90;4.95;;;11.60;99.90;;;;;;5073489;28;20044;-79
2022/07/02 03:27:42;;;;;;;7.38;5.18;;;11.60;99.90;;;;;;5073815;28;20156;-75
2022/07/02 03:30:09;;;;;;;5.90;5.30;;;11.60;99.90;;;;;;5070611;28;20036;-78
2022/07/02 03:32:34;;;;;;;6.00;5.30;;;11.70;99.90;;;;;;5070516;28;20427;-79
2022/07/02 03:35:00;;;;;;;7.85;5.47;;;11.70;99.90;;;;;;5077579;28;20132;-79
2022/07/02 03:37:28;;;;;;;7.43;5.22;;;11.70;99.90;;;;;;5072537;28;20040;-79
2022/07/02 03:39:53;;;;;;;7.47;5.68;;;11.80;99.90;;;;;;5074014;28;20436;-79
2022/07/02 03:42:19;;;;;;;6.30;5.68;;;11.80;99.90;;;;;;5071810;28;20124;-79
2022/07/02 03:44:45;;;;;;;7.75;6.75;;;11.80;99.90;;;;;;5072616;28;20045;-79
2022/07/02 03:47:10;;;;;;;6.78;6.15;;;11.80;99.90;;;;;;5070491;28;20044;-79
2022/07/02 03:49:36;;;;;;;9.02;5.50;;;11.80;99.90;;;;;;5071480;28;20566;-79
2022/07/02 03:52:02;;;;;;;8.82;6.10;;;11.90;99.90;;;;;;5072658;28;20457;-79
2022/07/02 03:54:27;;;;;;;8.15;5.60;;;11.90;99.90;;;;;;5071328;28;20132;-78
2022/07/02 03:56:53;;;;;;;6.22;5.60;;;11.90;99.90;;;;;;5071372;28;20037;-77
2022/07/02 03:59:18;;;;;;;6.00;5.40;;;12.00;99.90;;;;;;5071160;28;20081;-75
2022/07/02 04:01:44;;;;;;;6.82;5.32;;;12.00;99.90;;;;;;5070611;28;20051;-79
2022/07/02 04:04:10;;;;;;;6.75;5.40;;;12.00;99.90;;;;;;5069660;28;20061;-79
2022/07/02 04:06:35;;;;;;;6.97;6.30;;;12.10;99.90;;;;;;5068270;28;20048;-79
2022/07/02 04:09:01;;;;;;;5.95;5.18;;;12.10;99.90;;;;;;5070669;28;20039;-79
2022/07/02 04:11:26;;;;;;;7.60;6.38;;;12.20;99.90;;;;;;5055007;28;20036;-79
2022/07/02 04:13:52;;;;;;;7.18;5.90;;;12.20;99.90;;;;;;5062366;28;20072;-79
2022/07/02 04:16:17;;;;;;;6.68;5.82;;;12.30;99.90;;;;;;5069414;28;20041;-79
2022/07/02 04:18:43;;;;;;;6.50;6.00;;;12.30;99.90;;;;;;5070852;28;20039;-79
2022/07/02 04:21:08;;;;;;;10.63;5.90;;;12.40;99.90;;;;;;5072313;28;20035;-79
2022/07/02 04:23:34;;;;;;;6.35;5.75;;;12.40;99.90;;;;;;5069691;28;20092;-79
2022/07/02 04:26:00;;;;;;;6.03;5.43;;;12.50;99.90;;;;;;5072278;28;20055;-79
2022/07/02 04:28:26;;;;;;;8.82;6.28;;;12.50;99.90;;;;;;5073440;28;20051;-79
2022/07/02 04:30:51;;;;;;;7.15;5.97;;;12.60;99.90;;;;;;5070203;28;20048;-79
2022/07/02 04:33:17;;;;;;;10.18;6.05;;;12.60;99.90;;;;;;5071464;28;20040;-79
2022/07/02 04:35:43;;;;;;;10.05;7.07;;;12.60;99.90;;;;;;5072264;28;20662;-79
2022/07/02 04:40:36;;;;;;;7.57;6.88;;;12.70;99.90;;;;;;5082373;28;20052;-68
2022/07/02 04:43:02;;;;;;;7.60;6.70;;;12.70;99.90;;;;;;5092455;28;20039;-68
2022/07/02 04:45:27;;;;;;;7.85;7.15;;;12.80;99.90;;;;;;5092653;28;20469;-69
2022/07/02 04:47:53;;;;;;;9.57;7.65;;;12.80;99.90;;;;;;5081237;28;20058;-68
2022/07/02 04:50:18;;;;;;;9.05;8.15;;;12.90;99.90;;;;;;5082635;28;20044;-68
2022/07/02 04:52:48;;;;;;;9.15;7.63;;;12.90;99.90;;;;;;5069132;28;20493;-68
2022/07/02 04:55:13;;;;;;;8.45;7.63;;;13.00;99.90;;;;;;5091542;28;20036;-68
2022/07/02 04:57:39;;;;;;;10.93;8.30;;;13.10;99.90;;;;;;5058144;28;20113;-68
2022/07/02 05:00:05;;;;;;;9.40;8.27;;;13.10;99.90;;;;;;5074393;28;20126;-68
2022/07/02 05:02:31;;;;;;;9.65;7.97;;;13.20;99.90;;;;;;5092246;28;20086;-68
2022/07/02 05:04:56;;;;;;;9.05;8.15;;;13.30;99.90;;;;;;5074250;28;20056;-68
2022/07/02 05:07:22;;;;;;;9.23;8.10;;;13.40;99.90;;;;;;5082062;28;20036;-68
2022/07/02 05:09:47;;;;;;;9.68;8.70;;;13.50;99.90;;;;;;5073208;28;20044;-68
2022/07/02 05:12:13;;;;;;;10.65;8.13;;;13.60;99.90;;;;;;5088349;28;20081;-68
2022/07/02 05:14:39;;;;;;;9.93;8.70;;;13.70;99.90;;;;;;5069067;28;20068;-68
2022/07/02 05:17:04;;;;;;;11.43;8.45;;;13.70;99.90;;;;;;5072284;28;20105;-68
2022/07/02 05:19:30;;;;;;;12.32;8.52;;;13.80;99.90;;;;;;5091315;28;20063;-68
2022/07/02 05:21:55;;;;;;;8.15;7.13;;;13.90;99.90;;;;;;5072373;28;20122;-68
2022/07/02 05:24:21;;;;;;;8.60;7.00;;;13.90;99.90;;;;;;5081374;28;20052;-68
2022/07/02 05:26:46;;;;;;;8.50;7.35;;;14.00;99.90;;;;;;5087156;28;20040;-68
2022/07/02 05:29:12;;;;;;;7.75;7.03;;;14.10;99.90;;;;;;5088223;28;20507;-68
2022/07/02 05:31:37;;;;;;;7.50;6.68;;;14.10;99.90;;;;;;5088517;28;20043;-68
2022/07/02 05:34:03;;;;;;;8.85;6.47;;;14.20;99.90;;;;;;5090905;28;20075;-68
2022/07/02 05:36:28;;;;;;;8.50;6.20;;;14.30;99.90;;;;;;5088976;28;20036;-68
2022/07/02 05:38:54;;;;;;;10.85;6.18;;;14.40;99.90;;;;;;5052694;28;20140;-68
2022/07/02 05:41:19;;;;;;;7.53;6.20;;;14.60;99.90;;;;;;5059312;28;20045;-68
2022/07/02 05:43:45;;;;;;;13.00;5.88;;;14.60;99.90;;;;;;5073373;28;20044;-68
2022/07/02 05:46:10;;;;;;;7.03;6.00;;;14.80;99.90;;;;;;5069668;28;20054;-68
2022/07/02 05:48:36;;;;;;;6.22;5.55;;;14.90;99.90;;;;;;5069321;28;20032;-68
2022/07/02 05:51:02;;;;;;;5.47;4.82;;;16.10;99.90;;;;;;5059909;28;20462;-68
2022/07/02 05:53:28;;;;;;;8.15;5.50;;;16.40;99.90;;;;;;5070866;28;20063;-68
2022/07/02 05:55:54;;;;;;;6.72;4.70;;;19.00;99.90;;;;;;5047320;28;20154;-69
2022/07/02 05:58:19;;;;;;;8.65;4.18;;;19.90;99.90;;;;;;5039989;28;20136;-69
2022/07/02 06:00:45;;;;;;;5.60;3.50;;;21.40;99.90;;;;;;5065649;28;20064;-69
2022/07/02 06:03:10;;;;;;;5.50;3.25;;;22.50;99.10;;;;;;5051926;28;20508;-70
2022/07/02 06:08:20;;;;;;;6.20;3.40;;;25.40;92.60;;;;;;5055527;28;20132;-70
2022/07/02 06:10:45;;;;;;;5.20;3.45;;;26.10;92.50;;;;;;5082943;28;20238;-69
2022/07/02 06:13:11;;;;;;;5.80;3.05;;;26.70;90.50;;;;;;5069637;28;20094;-70
2022/07/02 06:15:37;;;;;;;3.40;2.80;;;27.30;90.70;;;;;;5069745;28;20040;-69
2022/07/02 06:18:02;;;;;;;5.13;3.05;;;27.50;89.60;;;;;;5068111;28;20037;-70
2022/07/02 06:20:35;;;;;;;4.47;2.90;;;27.80;87.20;;;;;;5063479;28;20064;-70
2022/07/02 06:23:00;;;;;;;4.47;2.85;;;28.20;85.10;;;;;;5063186;28;20396;-70
2022/07/02 06:25:26;;;;;;;3.65;2.42;;;;;;;;;;5063819;28;20029;-70
2022/07/02 06:27:52;;;;;;;6.43;2.75;;;;;;;;;;5057632;28;20040;-70
2022/07/02 06:30:18;;;;;;;4.13;2.70;;;29.30;75.30;;;;;;5065812;28;20076;-70
2022/07/02 06:32:44;;;;;;;4.22;2.13;;;29.10;78.90;;;;;;5069755;28;20536;-70
2022/07/02 06:35:11;;;;;;;2.78;2.17;;;;;;;;;;5056958;28;20045;-70
2022/07/02 06:37:37;;;;;;;2.03;1.80;;;29.40;76.00;;;;;;5051057;28;20120;-70
2022/07/02 06:40:03;;;;;;;3.65;1.95;;;30.00;74.20;;;;;;5081741;28;20549;-70
2022/07/02 06:42:31;;;;;;;3.88;2.05;;;30.20;74.70;;;;;;5069611;28;20127;-70
2022/07/02 06:44:58;;;;;;;3.42;1.92;;;30.00;71.20;;;;;;5068554;28;20040;-70
2022/07/02 06:47:24;;;;;;;3.30;1.80;;;29.90;69.10;;;;;;5061369;28;20048;-70
2022/07/02 06:49:50;;;;;;;2.72;1.55;;;29.90;68.70;;;;;;5069933;28;20040;-70
2022/07/02 06:52:17;;;;;;;2.70;1.52;;;;;;;;;;5069979;28;20058;-70
2022/07/02 06:54:44;;;;;;;2.70;1.67;;;30.60;66.80;;;;;;5073314;28;20036;-70
2022/07/02 06:57:10;;;;;;;4.53;1.50;;;30.40;65.80;;;;;;5071012;28;20055;-70
2022/07/02 06:59:36;;;;;;;3.08;1.42;;;30.60;65.60;;;;;;5074345;28;20032;-69
2022/07/02 07:02:02;;;;;;;2.72;1.30;;;30.50;65.40;;;;;;5056596;28;20064;-69
2022/07/02 07:04:28;;;;;;;2.75;1.40;;;30.80;67.20;;;;;;5072245;28;20028;-70
2022/07/02 07:06:55;;;;;;;2.20;1.20;;;30.90;65.20;;;;;;5063393;28;20063;-70
2022/07/02 07:09:24;;;;;;;1.95;0.80;;;31.00;64.90;;;;;;5057417;28;20056;-70
2022/07/02 07:11:50;;;;;;;2.95;1.27;;;30.60;61.70;;;;;;5069105;28;20043;-70
2022/07/02 07:14:16;;;;;;;2.22;0.90;;;30.60;61.80;;;;;;5062567;28;20402;-70
2022/07/02 07:16:42;;;;;;;1.52;0.93;;;30.90;64.20;;;;;;5072698;28;20458;-70
2022/07/02 07:19:08;;;;;;;3.55;1.02;;;31.10;62.60;;;;;;5069515;28;20036;-70
2022/07/02 07:21:35;;;;;;;1.90;0.98;;;30.90;61.00;;;;;;5073051;28;20083;-70
2022/07/02 07:24:01;;;;;;;3.50;1.05;;;31.20;62.00;;;;;;5073231;28;20086;-70
2022/07/02 07:26:27;;;;;;;2.08;0.95;;;31.20;59.90;;;;;;5076978;28;20044;-70
2022/07/02 07:28:53;;;;;;;3.30;1.20;;;31.20;60.30;;;;;;5071219;28;20040;-68
2022/07/02 07:31:21;;;;;;;3.05;1.10;;;31.10;61.00;;;;;;5072118;28;20048;-69
2022/07/02 07:33:51;;;;;;;2.97;1.08;;;31.30;60.40;;;;;;5070055;28;20063;-69
2022/07/02 07:36:22;;;;;;;2.87;1.00;;;31.40;61.10;;;;;;5069050;28;20048;-69
2022/07/02 07:38:49;;;;;;;2.85;0.95;;;31.30;59.50;;;;;;5053233;28;20048;-69
2022/07/02 07:41:15;;;;;;;1.70;0.88;;;31.30;60.60;;;;;;5069287;28;20044;-68
2022/07/02 07:43:40;;;;;;;1.98;0.75;;;30.60;55.90;;;;;;5074038;28;20047;-69
2022/07/02 07:46:06;;;;;;;2.78;1.15;;;30.70;55.70;;;;;;5069970;28;20036;-69
2022/07/02 07:48:32;;;;;;;2.03;0.80;;;30.10;57.10;;;;;;5088148;28;20112;-69
2022/07/02 07:50:59;;;;;;;1.95;0.82;;;30.00;57.40;;;;;;5067166;28;20114;-69
2022/07/02 07:53:25;;;;;;;3.22;1.10;;;29.10;57.40;;;;;;5072282;28;20041;-69
2022/07/02 07:55:51;;;;;;;1.23;0.77;;;28.80;57.00;;;;;;5071397;28;20509;-69
2022/07/02 07:58:17;;;;;;;4.80;0.95;;;29.10;58.00;;;;;;5069078;28;20068;-70
2022/07/02 08:00:43;;;;;;;2.50;0.88;;;29.40;59.60;;;;;;5048126;28;20040;-70
2022/07/02 08:03:08;;;;;;;1.73;0.88;;;29.30;59.30;;;;;;5069888;28;20032;-72
2022/07/02 08:05:35;;;;;;;2.10;1.00;;;29.70;59.80;;;;;;5068584;28;20086;-71
2022/07/02 08:08:01;;;;;;;3.80;1.05;;;29.30;58.80;;;;;;5071567;28;20044;-72
2022/07/02 08:10:27;;;;;;;2.70;0.90;;;29.40;57.70;;;;;;5058249;28;20394;-72
2022/07/02 08:12:52;;;;;;;3.03;0.90;;;29.20;59.40;;;;;;5068334;28;20044;-72
2022/07/02 08:15:18;;;;;;;2.90;0.93;;;28.50;58.50;;;;;;5069246;28;20036;-71
2022/07/02 08:17:44;;;;;;;2.10;0.80;;;27.90;60.70;;;;;;5071891;28;20569;-71
2022/07/02 08:20:10;;;;;;;1.63;0.70;;;26.90;60.60;;;;;;5071855;28;20079;-72
2022/07/02 08:22:36;;;;;;;3.85;0.93;;;26.10;61.40;;;;;;5071305;28;20119;-71
2022/07/02 08:25:07;;;;;;;2.15;0.77;;;25.80;69.70;;;;;;5069656;28;20449;-71
2022/07/02 08:27:33;;;;;;;1.83;0.88;;;25.50;63.70;;;;;;5071620;28;20041;-72
2022/07/02 08:29:58;;;;;;;4.95;0.70;;;25.10;64.00;;;;;;5071595;28;20040;-72
2022/07/02 08:32:25;;;;;;;2.88;0.80;;;24.70;64.50;;;;;;5071595;28;20052;-72
2022/07/02 08:34:51;;;;;;;3.22;0.52;;;24.40;66.40;;;;;;5071367;28;20040;-72
2022/07/02 08:37:16;;;;;;;2.28;0.70;;;24.20;66.90;;;;;;5071194;28;20037;-72
2022/07/02 08:39:42;;;;;;;1.35;0.60;;;23.90;65.10;;;;;;5060037;28;20063;-72
2022/07/02 08:42:09;;;;;;;1.65;0.60;;;23.70;66.60;;;;;;5055816;28;20461;-72
2022/07/02 08:44:35;;;;;;;1.20;0.50;;;23.50;67.70;;;;;;5060230;28;20041;-72
2022/07/02 08:47:07;;;;;;;1.23;0.45;;;23.20;67.10;;;;;;5055083;28;20075;-72
2022/07/02 08:49:35;;;;;;;0.85;0.65;;;23.00;63.60;;;;;;5037931;28;20432;-72
2022/07/02 08:52:06;;;;;;;1.23;0.25;;;22.90;65.70;;;;;;5054097;28;20052;-72
2022/07/02 08:54:31;;;;;;;0.85;0.40;;;22.80;67.30;;;;;;5054361;28;20059;-71
2022/07/02 08:57:00;;;;;;;2.10;0.50;;;22.70;67.20;;;;;;5071835;28;20048;-72
2022/07/02 08:59:27;;;;;;;0.73;0.40;;;22.80;67.00;;;;;;5053317;28;20036;-72
2022/07/02 09:01:53;;;;;;;1.00;0.60;;;22.70;68.60;;;;;;5053037;28;20032;-72
2022/07/02 09:04:19;;;;;;;1.45;0.40;;;22.60;67.50;;;;;;5047419;28;20530;-70
2022/07/02 09:06:49;;;;;;;1.92;0.50;;;22.50;67.00;;;;;;5054488;28;20044;-70
2022/07/02 09:09:16;;;;;;;1.10;0.68;;;22.50;68.40;;;;;;5051677;28;20131;-69
2022/07/02 09:11:42;;;;;;;1.95;0.38;;;22.40;69.10;;;;;;5051998;28;20052;-69
2022/07/02 09:14:08;;;;;;;1.48;0.60;;;22.40;69.30;;;;;;5072006;28;20032;-69
2022/07/02 09:16:34;;;;;;;1.55;0.50;;;22.60;68.90;;;;;;5070226;28;20045;-69
2022/07/02 09:19:00;;;;;;;2.00;0.60;;;22.70;69.30;;;;;;5051741;28;20043;-69
2022/07/02 09:21:25;;;;;;;0.30;0.30;;;22.80;70.20;;;;;;5071967;28;20043;-69
2022/07/02 09:23:51;;;;;;;0.98;0.45;;;22.90;70.60;;;;;;5072043;28;20397;-70
2022/07/02 09:26:19;;;;;;;0.85;0.60;;;22.90;70.70;;;;;;5051779;28;20072;-70
2022/07/02 09:28:59;;;;;;;0.85;0.43;;;23.00;70.70;;;;;;5071722;28;20071;-70
2022/07/02 09:31:30;;;;;;;1.13;0.43;;;23.00;68.40;;;;;;5053353;28;20795;-70
2022/07/02 09:33:56;;;;;;;2.22;0.50;;;23.00;66.70;;;;;;5053822;28;20079;-70
2022/07/02 09:36:23;;;;;;;1.45;0.40;;;22.90;66.60;;;;;;5052194;28;20059;-70
2022/07/02 09:38:53;;;;;;;0.50;0.50;;;23.00;68.20;;;;;;5076946;28;20075;-69
2022/07/02 09:41:21;;;;;;;2.47;0.50;;;23.00;67.70;;;;;;5072758;28;20466;-69
2022/07/02 09:43:59;;;;;;;1.50;0.55;;;23.20;69.90;;;;;;5070382;28;20052;-70
2022/07/02 09:46:25;;;;;;;1.08;0.60;;;23.20;69.10;;;;;;5079844;28;20044;-70
2022/07/02 09:48:50;;;;;;;1.35;0.40;;;23.30;68.90;;;;;;5097346;28;20043;-70
2022/07/02 09:51:17;;;;;;;1.35;0.32;;;23.40;67.60;;;;;;5085072;28;20040;-70
2022/07/02 09:53:53;;;;;;;1.60;0.30;;;23.40;66.50;;;;;;5090996;28;20067;-70
2022/07/02 09:56:23;;;;;;;1.17;0.30;;;23.60;68.50;;;;;;5090345;28;20072;-70
2022/07/02 09:58:50;;;;;;;0.50;0.40;;;23.50;67.70;;;;;;5089559;28;20042;-70
2022/07/02 10:01:22;;;;;;;1.20;0.50;;;23.40;68.20;;;;;;5069369;28;20362;-69
2022/07/02 10:03:53;;;;;;;0.35;0.28;;;23.10;64.30;;;;;;5087961;28;20024;-70
2022/07/02 10:06:20;;;;;;;2.30;0.30;;;23.20;64.40;;;;;;5068533;28;20052;-71
2022/07/02 10:08:47;;;;;;;1.42;0.55;;;23.20;64.50;;;;;;5070836;28;20082;-70
2022/07/02 10:11:14;;;;;;;0.95;0.40;;;23.40;66.20;;;;;;5084570;28;20050;-70
2022/07/02 10:13:40;;;;;;;1.67;0.60;;;23.30;63.30;;;;;;5068838;28;20054;-70
2022/07/02 10:16:14;;;;;;;2.47;0.57;;;23.40;66.50;;;;;;5071050;28;20118;-71
2022/07/02 10:18:42;;;;;;;1.63;0.57;;;23.50;65.20;;;;;;5083577;28;20048;-70
2022/07/02 10:21:10;;;;;;;1.55;0.47;;;23.50;65.90;;;;;;5088179;28;20039;-70
2022/07/02 10:23:38;;;;;;;1.95;0.50;;;23.50;65.40;;;;;;5065222;28;20051;-71
2022/07/02 10:26:04;;;;;;;0.82;0.38;;;23.70;66.10;;;;;;5060889;28;20056;-72
2022/07/02 10:28:29;;;;;;;1.27;0.55;;;23.70;63.20;;;;;;5071271;28;20091;-72
2022/07/02 10:30:56;;;;;;;1.67;0.50;;;23.70;62.60;;;;;;5072074;28;20044;-71
2022/07/02 10:33:50;;;;;;;3.63;0.65;;;23.90;65.50;;;;;;5076228;28;20051;-72
2022/07/02 10:36:17;;;;;;;1.40;0.50;;;23.90;64.30;;;;;;5076990;28;20044;-72
2022/07/02 10:38:46;;;;;;;0.70;0.50;;;23.90;63.10;;;;;;5072130;28;20109;-72
2022/07/02 10:41:12;;;;;;;1.33;0.60;;;24.00;66.40;;;;;;5095260;28;20052;-72
2022/07/02 10:43:39;;;;;;;0.82;0.40;;;24.00;65.50;;;;;;5093375;28;20123;-73
2022/07/02 10:46:08;;;;;;;1.00;0.60;;;24.20;65.90;;;;;;5071426;28;20040;-73
2022/07/02 10:48:48;;;;;;;0.85;0.50;;;24.20;65.70;;;;;;5090252;28;20097;-72
2022/07/02 10:51:24;;;;;;;1.92;0.57;;;24.30;62.90;;;;;;5075155;28;20485;-72
2022/07/02 10:54:00;;;;;;;1.55;0.50;;;24.10;63.70;;;;;;5092488;28;20043;-73
2022/07/02 10:56:27;;;;;;;5.07;0.68;;;24.20;62.80;;;;;;5093049;28;20040;-73
2022/07/02 10:58:52;;;;;;;2.72;0.60;;;24.10;63.80;;;;;;5075688;28;20038;-72
2022/07/02 11:01:23;;;;;;;1.13;0.57;;;24.10;63.50;;;;;;5085649;28;20040;-73
2022/07/02 11:03:57;;;;;;;0.80;0.30;;;24.20;62.90;;;;;;5076335;28;20478;-72
2022/07/02 11:06:30;;;;;;;1.45;0.57;;;24.20;60.60;;;;;;5076455;28;20052;-72
2022/07/02 11:08:59;;;;;;;1.13;0.52;;;24.20;63.30;;;;;;5076169;28;20062;-73
2022/07/02 11:11:38;;;;;;;1.35;0.30;;;24.20;63.90;;;;;;5075341;28;20547;-72
2022/07/02 11:14:07;;;;;;;0.73;0.40;;;24.20;65.50;;;;;;5073021;28;20044;-72
2022/07/02 11:16:38;;;;;;;1.15;0.40;;;24.30;65.50;;;;;;5075420;28;20583;-72
2022/07/02 11:19:25;;;;;;;1.23;0.60;;;24.20;64.20;;;;;;5061622;28;20386;-73
2022/07/02 11:21:57;;;;;;;1.80;0.50;;;24.40;61.00;;;;;;5089677;28;20489;-73
2022/07/02 11:24:24;;;;;;;2.08;0.60;;;24.60;65.30;;;;;;5093710;28;20047;-72
2022/07/02 11:26:50;;;;;;;1.55;0.40;;;24.60;65.50;;;;;;5080939;28;20135;-72
2022/07/02 11:29:16;;;;;;;1.20;0.50;;;24.50;63.80;;;;;;5075775;28;20150;-72
2022/07/02 11:31:46;;;;;;;1.02;0.55;;;24.40;63.80;;;;;;5094274;28;20521;-73
2022/07/02 11:34:15;;;;;;;1.15;0.40;;;24.40;63.00;;;;;;5093008;28;20483;-72
2022/07/02 11:36:41;;;;;;;1.55;0.60;;;24.50;64.50;;;;;;5075896;28;20048;-72
2022/07/02 11:39:09;;;;;;;2.70;0.50;;;24.50;62.30;;;;;;5089745;28;21711;-72
2022/07/02 11:41:35;;;;;;;1.33;0.60;;;24.40;62.40;;;;;;5075807;28;20035;-73
2022/07/02 11:44:14;;;;;;;1.50;0.45;;;24.50;63.60;;;;;;5093676;28;20524;-73
2022/07/02 11:46:42;;;;;;;2.10;0.30;;;24.80;65.40;;;;;;5059363;28;20044;-72
2022/07/02 11:49:22;;;;;;;1.98;0.50;;;25.00;64.60;;;;;;5073387;28;20102;-73
2022/07/02 11:51:49;;;;;;;1.15;0.40;;;24.90;64.20;;;;;;5056492;28;20064;-72
2022/07/02 11:54:16;;;;;;;1.58;0.43;;;25.00;65.70;;;;;;5049760;28;20048;-73
2022/07/02 11:56:44;;;;;;;1.25;0.40;;;25.20;65.50;;;;;;5054893;28;20453;-72
2022/07/02 11:59:15;;;;;;;1.67;0.50;;;25.30;63.20;;;;;;5054156;28;20048;-73
2022/07/02 12:01:43;;;;;;;1.13;0.60;;;25.30;62.70;;;;;;5066738;28;20048;-73
2022/07/02 12:04:14;;;;;;;1.08;0.50;;;25.20;62.00;;;;;;5057720;28;20078;-73
2022/07/02 12:06:45;;;;;;;2.13;0.65;;;25.20;63.80;;;;;;5054953;28;20097;-73
2022/07/02 12:09:20;;;;;;;1.52;0.50;;;25.30;60.50;;;;;;5054661;28;20079;-73
2022/07/02 12:11:47;;;;;;;0.80;0.47;;;25.30;61.20;;;;;;5063829;28;20127;-72
2022/07/02 12:14:14;;;;;;;2.72;0.60;;;25.30;59.90;;;;;;5054859;28;20152;-72
2022/07/02 12:16:41;;;;;;;1.77;0.60;;;25.30;63.90;;;;;;5054589;28;20040;-73
2022/07/02 12:19:08;;;;;;;2.65;0.85;;;25.40;64.60;;;;;;5048453;28;20029;-73
2022/07/02 12:21:43;;;;;;;0.98;0.60;;;25.60;63.80;;;;;;5052688;28;20772;-73
2022/07/02 12:24:19;;;;;;;3.10;0.88;;;25.40;60.90;;;;;;5046741;28;20108;-73
2022/07/02 12:26:46;;;;;;;1.27;0.50;;;25.30;60.80;;;;;;5057261;28;20113;-73
2022/07/02 12:32:05;;;;;;;2.50;0.93;;;25.50;65.70;;;;;;5071553;28;20143;-72
2022/07/02 12:35:08;;;;;;;2.25;0.57;;;25.60;65.60;;;;;;5062292;28;20052;-72
2022/07/02 12:37:39;;;;;;;2.72;0.70;;;25.90;65.00;;;;;;5038978;28;20131;-72
2022/07/02 12:40:13;;;;;;;2.50;0.40;;;25.90;62.60;;;;;;5052884;28;20482;-72
2022/07/02 12:42:49;;;;;;;1.33;0.50;;;25.80;65.20;;;;;;5068422;28;20036;-72
2022/07/02 12:45:36;;;;;;;0.63;0.40;;;25.90;61.80;;;;;;5050139;28;20041;-72
2022/07/02 12:48:06;;;;;;;1.60;0.45;;;25.70;60.30;;;;;;5054029;28;20040;-72
2022/07/02 12:50:35;;;;;;;1.27;0.70;;;25.60;62.90;;;;;;5064682;28;20040;-72
2022/07/02 12:53:05;;;;;;;6.78;0.65;;;25.60;63.60;;;;;;5052301;28;20078;-72
2022/07/02 12:55:37;;;;;;;2.33;1.15;;;25.40;64.10;;;;;;5052057;28;20047;-71
2022/07/02 12:58:08;;;;;;;2.50;1.10;;;25.40;63.70;;;;;;5066584;28;20039;-71
2022/07/02 13:00:34;;;;;;;;;;;25.40;66.60;;;;;;5053453;28;20040;-72